sensor_id;sensor_type;location;lat;lon;timestamp;P1;durP1;ratioP1;P2;durP2;ratioP2
33268;SDS011;19640;50.944;5.260;2023-04-06T00:01:09;31.02;;;17.17;;
33268;SDS011;19640;50.944;5.260;2023-04-06T00:03:36;22.23;;;16.02;;
33268;SDS011;19640;50.944;5.260;2023-04-06T00:06:02;29.88;;;16.60;;
33268;SDS011;19640;50.944;5.260;2023-04-06T00:08:27;26.70;;;15.63;;
33268;SDS011;19640;50.944;5.260;2023-04-06T00:10:53;21.65;;;14.63;;
33268;SDS011;19640;50.944;5.260;2023-04-06T00:13:19;25.90;;;15.32;;
33268;SDS011;19640;50.944;5.260;2023-04-06T00:15:45;19.63;;;13.38;;
33268;SDS011;19640;50.944;5.260;2023-04-06T00:18:11;21.77;;;16.05;;
33268;SDS011;19640;50.944;5.260;2023-04-06T00:20:37;24.75;;;15.80;;
33268;SDS011;19640;50.944;5.260;2023-04-06T00:23:03;29.05;;;16.33;;
33268;SDS011;19640;50.944;5.260;2023-04-06T00:25:28;26.67;;;16.80;;
33268;SDS011;19640;50.944;5.260;2023-04-06T00:27:54;26.10;;;17.48;;
33268;SDS011;19640;50.944;5.260;2023-04-06T00:30:20;27.63;;;17.73;;
33268;SDS011;19640;50.944;5.260;2023-04-06T00:32:46;29.55;;;18.35;;
33268;SDS011;19640;50.944;5.260;2023-04-06T00:35:11;27.05;;;17.92;;
33268;SDS011;19640;50.944;5.260;2023-04-06T00:37:37;28.85;;;17.15;;
33268;SDS011;19640;50.944;5.260;2023-04-06T00:40:03;26.35;;;17.98;;
33268;SDS011;19640;50.944;5.260;2023-04-06T00:42:29;27.45;;;16.70;;
33268;SDS011;19640;50.944;5.260;2023-04-06T00:44:56;23.63;;;16.30;;
33268;SDS011;19640;50.944;5.260;2023-04-06T00:47:23;28.65;;;17.08;;
33268;SDS011;19640;50.944;5.260;2023-04-06T00:49:50;23.00;;;14.40;;
33268;SDS011;19640;50.944;5.260;2023-04-06T00:52:16;27.73;;;17.48;;
33268;SDS011;19640;50.944;5.260;2023-04-06T00:54:43;27.20;;;15.82;;
33268;SDS011;19640;50.944;5.260;2023-04-06T00:57:08;24.42;;;14.75;;
33268;SDS011;19640;50.944;5.260;2023-04-06T00:59:35;25.17;;;15.85;;
33268;SDS011;19640;50.944;5.260;2023-04-06T01:02:01;21.42;;;14.35;;
33268;SDS011;19640;50.944;5.260;2023-04-06T01:04:26;20.85;;;13.98;;
33268;SDS011;19640;50.944;5.260;2023-04-06T01:06:52;23.48;;;15.40;;
33268;SDS011;19640;50.944;5.260;2023-04-06T01:09:18;24.70;;;15.02;;
33268;SDS011;19640;50.944;5.260;2023-04-06T01:11:44;24.13;;;15.25;;
33268;SDS011;19640;50.944;5.260;2023-04-06T01:14:10;21.02;;;14.38;;
33268;SDS011;19640;50.944;5.260;2023-04-06T01:16:36;19.50;;;15.00;;
33268;SDS011;19640;50.944;5.260;2023-04-06T01:19:11;24.23;;;14.88;;
33268;SDS011;19640;50.944;5.260;2023-04-06T01:21:38;22.35;;;15.65;;
33268;SDS011;19640;50.944;5.260;2023-04-06T01:24:04;22.27;;;15.35;;
33268;SDS011;19640;50.944;5.260;2023-04-06T01:26:31;23.77;;;15.05;;
33268;SDS011;19640;50.944;5.260;2023-04-06T01:28:58;19.77;;;14.15;;
33268;SDS011;19640;50.944;5.260;2023-04-06T01:31:24;21.88;;;14.30;;
33268;SDS011;19640;50.944;5.260;2023-04-06T01:33:50;20.35;;;13.85;;
33268;SDS011;19640;50.944;5.260;2023-04-06T01:36:16;26.98;;;16.85;;
33268;SDS011;19640;50.944;5.260;2023-04-06T01:38:42;26.88;;;16.20;;
33268;SDS011;19640;50.944;5.260;2023-04-06T01:41:08;29.38;;;16.67;;
33268;SDS011;19640;50.944;5.260;2023-04-06T01:43:34;28.95;;;16.13;;
33268;SDS011;19640;50.944;5.260;2023-04-06T01:45:59;27.58;;;17.17;;
33268;SDS011;19640;50.944;5.260;2023-04-06T01:48:26;28.55;;;17.00;;
33268;SDS011;19640;50.944;5.260;2023-04-06T01:50:52;22.83;;;14.32;;
33268;SDS011;19640;50.944;5.260;2023-04-06T01:53:18;23.17;;;14.98;;
33268;SDS011;19640;50.944;5.260;2023-04-06T01:55:44;26.30;;;15.20;;
33268;SDS011;19640;50.944;5.260;2023-04-06T01:58:10;23.83;;;15.05;;
33268;SDS011;19640;50.944;5.260;2023-04-06T02:00:36;25.63;;;15.18;;
33268;SDS011;19640;50.944;5.260;2023-04-06T02:03:02;18.05;;;13.48;;
33268;SDS011;19640;50.944;5.260;2023-04-06T02:05:28;21.80;;;14.30;;
33268;SDS011;19640;50.944;5.260;2023-04-06T02:07:55;25.80;;;14.85;;
33268;SDS011;19640;50.944;5.260;2023-04-06T02:10:21;22.55;;;14.98;;
33268;SDS011;19640;50.944;5.260;2023-04-06T02:12:47;22.98;;;15.05;;
33268;SDS011;19640;50.944;5.260;2023-04-06T02:15:13;23.67;;;14.43;;
33268;SDS011;19640;50.944;5.260;2023-04-06T02:17:40;29.02;;;16.40;;
33268;SDS011;19640;50.944;5.260;2023-04-06T02:20:06;25.58;;;16.20;;
33268;SDS011;19640;50.944;5.260;2023-04-06T02:22:32;34.03;;;18.58;;
33268;SDS011;19640;50.944;5.260;2023-04-06T02:24:59;28.42;;;17.15;;
33268;SDS011;19640;50.944;5.260;2023-04-06T02:27:25;30.42;;;16.70;;
33268;SDS011;19640;50.944;5.260;2023-04-06T02:29:51;26.35;;;16.42;;
33268;SDS011;19640;50.944;5.260;2023-04-06T02:32:16;31.35;;;17.35;;
33268;SDS011;19640;50.944;5.260;2023-04-06T02:34:42;28.40;;;17.13;;
33268;SDS011;19640;50.944;5.260;2023-04-06T02:37:08;36.80;;;17.92;;
33268;SDS011;19640;50.944;5.260;2023-04-06T02:39:33;31.40;;;18.50;;
33268;SDS011;19640;50.944;5.260;2023-04-06T02:41:59;29.58;;;17.08;;
33268;SDS011;19640;50.944;5.260;2023-04-06T02:44:25;29.35;;;15.85;;
33268;SDS011;19640;50.944;5.260;2023-04-06T02:46:51;25.20;;;16.05;;
33268;SDS011;19640;50.944;5.260;2023-04-06T02:49:16;25.17;;;16.55;;
33268;SDS011;19640;50.944;5.260;2023-04-06T02:51:42;35.45;;;18.45;;
33268;SDS011;19640;50.944;5.260;2023-04-06T02:54:07;32.08;;;18.27;;
33268;SDS011;19640;50.944;5.260;2023-04-06T02:56:33;20.70;;;15.07;;
33268;SDS011;19640;50.944;5.260;2023-04-06T02:58:59;20.52;;;13.80;;
33268;SDS011;19640;50.944;5.260;2023-04-06T03:01:25;23.90;;;14.00;;
33268;SDS011;19640;50.944;5.260;2023-04-06T03:03:51;29.98;;;16.95;;
33268;SDS011;19640;50.944;5.260;2023-04-06T03:06:17;28.58;;;17.90;;
33268;SDS011;19640;50.944;5.260;2023-04-06T03:08:42;34.65;;;19.10;;
33268;SDS011;19640;50.944;5.260;2023-04-06T03:11:08;32.03;;;16.92;;
33268;SDS011;19640;50.944;5.260;2023-04-06T03:13:35;27.10;;;15.77;;
33268;SDS011;19640;50.944;5.260;2023-04-06T03:16:03;25.83;;;15.77;;
33268;SDS011;19640;50.944;5.260;2023-04-06T03:18:30;23.35;;;15.40;;
33268;SDS011;19640;50.944;5.260;2023-04-06T03:20:56;24.88;;;15.88;;
33268;SDS011;19640;50.944;5.260;2023-04-06T03:23:22;31.40;;;15.75;;
33268;SDS011;19640;50.944;5.260;2023-04-06T03:25:47;20.95;;;15.48;;
33268;SDS011;19640;50.944;5.260;2023-04-06T03:28:13;18.15;;;12.50;;
33268;SDS011;19640;50.944;5.260;2023-04-06T03:30:40;20.15;;;13.93;;
33268;SDS011;19640;50.944;5.260;2023-04-06T03:33:05;22.60;;;13.60;;
33268;SDS011;19640;50.944;5.260;2023-04-06T03:35:31;19.08;;;13.55;;
33268;SDS011;19640;50.944;5.260;2023-04-06T03:37:56;22.63;;;14.52;;
33268;SDS011;19640;50.944;5.260;2023-04-06T03:40:22;22.60;;;14.70;;
33268;SDS011;19640;50.944;5.260;2023-04-06T03:42:48;28.63;;;16.48;;
33268;SDS011;19640;50.944;5.260;2023-04-06T03:45:14;27.52;;;17.55;;
33268;SDS011;19640;50.944;5.260;2023-04-06T03:47:40;29.25;;;16.95;;
33268;SDS011;19640;50.944;5.260;2023-04-06T03:50:06;24.83;;;16.98;;
33268;SDS011;19640;50.944;5.260;2023-04-06T03:52:32;21.13;;;14.70;;
33268;SDS011;19640;50.944;5.260;2023-04-06T03:54:57;21.23;;;15.05;;
33268;SDS011;19640;50.944;5.260;2023-04-06T03:57:23;23.80;;;14.63;;
33268;SDS011;19640;50.944;5.260;2023-04-06T03:59:49;23.80;;;15.40;;
33268;SDS011;19640;50.944;5.260;2023-04-06T04:02:14;21.38;;;13.98;;
33268;SDS011;19640;50.944;5.260;2023-04-06T04:04:40;21.52;;;13.82;;
33268;SDS011;19640;50.944;5.260;2023-04-06T04:07:06;18.33;;;13.05;;
33268;SDS011;19640;50.944;5.260;2023-04-06T04:09:31;18.02;;;12.73;;
33268;SDS011;19640;50.944;5.260;2023-04-06T04:11:57;18.67;;;13.52;;
33268;SDS011;19640;50.944;5.260;2023-04-06T04:14:23;21.63;;;13.85;;
33268;SDS011;19640;50.944;5.260;2023-04-06T04:16:49;23.73;;;15.13;;
33268;SDS011;19640;50.944;5.260;2023-04-06T04:19:14;27.45;;;16.05;;
33268;SDS011;19640;50.944;5.260;2023-04-06T04:21:44;26.98;;;15.18;;
33268;SDS011;19640;50.944;5.260;2023-04-06T04:24:11;24.77;;;15.77;;
33268;SDS011;19640;50.944;5.260;2023-04-06T04:26:37;24.40;;;14.75;;
33268;SDS011;19640;50.944;5.260;2023-04-06T04:29:03;19.77;;;14.27;;
33268;SDS011;19640;50.944;5.260;2023-04-06T04:31:29;20.80;;;13.50;;
33268;SDS011;19640;50.944;5.260;2023-04-06T04:33:54;17.15;;;12.50;;
33268;SDS011;19640;50.944;5.260;2023-04-06T04:36:20;19.33;;;13.73;;
33268;SDS011;19640;50.944;5.260;2023-04-06T04:38:46;23.25;;;13.32;;
33268;SDS011;19640;50.944;5.260;2023-04-06T04:41:11;20.40;;;14.02;;
33268;SDS011;19640;50.944;5.260;2023-04-06T04:43:37;19.40;;;13.82;;
33268;SDS011;19640;50.944;5.260;2023-04-06T04:46:03;20.35;;;13.75;;
33268;SDS011;19640;50.944;5.260;2023-04-06T04:48:29;18.30;;;13.20;;
33268;SDS011;19640;50.944;5.260;2023-04-06T04:50:55;18.77;;;13.57;;
33268;SDS011;19640;50.944;5.260;2023-04-06T04:53:21;20.83;;;15.05;;
33268;SDS011;19640;50.944;5.260;2023-04-06T04:55:47;24.27;;;15.60;;
33268;SDS011;19640;50.944;5.260;2023-04-06T04:58:12;21.50;;;15.07;;
33268;SDS011;19640;50.944;5.260;2023-04-06T05:00:45;23.67;;;15.60;;
33268;SDS011;19640;50.944;5.260;2023-04-06T05:03:13;25.92;;;16.05;;
33268;SDS011;19640;50.944;5.260;2023-04-06T05:05:50;24.45;;;15.75;;
33268;SDS011;19640;50.944;5.260;2023-04-06T05:08:16;27.33;;;16.50;;
33268;SDS011;19640;50.944;5.260;2023-04-06T05:10:42;24.13;;;16.65;;
33268;SDS011;19640;50.944;5.260;2023-04-06T05:13:08;25.90;;;16.83;;
33268;SDS011;19640;50.944;5.260;2023-04-06T05:15:33;24.17;;;15.88;;
33268;SDS011;19640;50.944;5.260;2023-04-06T05:18:05;26.38;;;16.25;;
33268;SDS011;19640;50.944;5.260;2023-04-06T05:20:35;22.63;;;15.70;;
33268;SDS011;19640;50.944;5.260;2023-04-06T05:23:01;21.30;;;15.77;;
33268;SDS011;19640;50.944;5.260;2023-04-06T05:25:27;25.60;;;15.18;;
33268;SDS011;19640;50.944;5.260;2023-04-06T05:27:52;22.33;;;14.52;;
33268;SDS011;19640;50.944;5.260;2023-04-06T05:30:18;20.77;;;15.18;;
33268;SDS011;19640;50.944;5.260;2023-04-06T05:32:45;23.40;;;15.00;;
33268;SDS011;19640;50.944;5.260;2023-04-06T05:35:12;19.40;;;13.38;;
33268;SDS011;19640;50.944;5.260;2023-04-06T05:37:38;25.55;;;14.20;;
33268;SDS011;19640;50.944;5.260;2023-04-06T05:40:04;23.55;;;14.98;;
33268;SDS011;19640;50.944;5.260;2023-04-06T05:42:37;22.50;;;14.60;;
33268;SDS011;19640;50.944;5.260;2023-04-06T05:45:09;21.10;;;14.27;;
33268;SDS011;19640;50.944;5.260;2023-04-06T05:47:36;19.83;;;13.40;;
33268;SDS011;19640;50.944;5.260;2023-04-06T05:50:03;24.02;;;14.60;;
33268;SDS011;19640;50.944;5.260;2023-04-06T05:52:29;22.70;;;14.82;;
33268;SDS011;19640;50.944;5.260;2023-04-06T05:54:54;21.08;;;14.18;;
33268;SDS011;19640;50.944;5.260;2023-04-06T05:57:20;20.48;;;13.60;;
33268;SDS011;19640;50.944;5.260;2023-04-06T05:59:46;20.15;;;14.23;;
33268;SDS011;19640;50.944;5.260;2023-04-06T06:02:12;18.95;;;13.77;;
33268;SDS011;19640;50.944;5.260;2023-04-06T06:04:37;20.40;;;13.32;;
33268;SDS011;19640;50.944;5.260;2023-04-06T06:07:03;20.58;;;14.00;;
33268;SDS011;19640;50.944;5.260;2023-04-06T06:09:29;17.70;;;13.52;;
33268;SDS011;19640;50.944;5.260;2023-04-06T06:11:55;22.17;;;14.50;;
33268;SDS011;19640;50.944;5.260;2023-04-06T06:14:20;21.67;;;15.20;;
33268;SDS011;19640;50.944;5.260;2023-04-06T06:16:47;23.60;;;14.43;;
33268;SDS011;19640;50.944;5.260;2023-04-06T06:19:13;24.42;;;15.02;;
33268;SDS011;19640;50.944;5.260;2023-04-06T06:21:38;29.60;;;15.40;;
33268;SDS011;19640;50.944;5.260;2023-04-06T06:24:05;19.02;;;14.60;;
33268;SDS011;19640;50.944;5.260;2023-04-06T06:26:31;21.00;;;13.77;;
33268;SDS011;19640;50.944;5.260;2023-04-06T06:28:56;22.23;;;14.50;;
33268;SDS011;19640;50.944;5.260;2023-04-06T06:31:22;27.60;;;14.50;;
33268;SDS011;19640;50.944;5.260;2023-04-06T06:33:48;27.17;;;15.35;;
33268;SDS011;19640;50.944;5.260;2023-04-06T06:36:17;18.30;;;13.70;;
33268;SDS011;19640;50.944;5.260;2023-04-06T06:38:43;23.05;;;14.15;;
33268;SDS011;19640;50.944;5.260;2023-04-06T06:41:09;21.25;;;13.18;;
33268;SDS011;19640;50.944;5.260;2023-04-06T06:43:35;26.38;;;14.40;;
33268;SDS011;19640;50.944;5.260;2023-04-06T06:46:01;17.25;;;13.35;;
33268;SDS011;19640;50.944;5.260;2023-04-06T06:48:27;20.67;;;14.52;;
33268;SDS011;19640;50.944;5.260;2023-04-06T06:50:53;18.70;;;14.50;;
33268;SDS011;19640;50.944;5.260;2023-04-06T06:53:19;24.67;;;15.88;;
33268;SDS011;19640;50.944;5.260;2023-04-06T06:55:45;20.70;;;13.05;;
33268;SDS011;19640;50.944;5.260;2023-04-06T06:58:11;21.42;;;13.85;;
33268;SDS011;19640;50.944;5.260;2023-04-06T07:00:37;21.25;;;13.82;;
33268;SDS011;19640;50.944;5.260;2023-04-06T07:03:02;26.10;;;14.75;;
33268;SDS011;19640;50.944;5.260;2023-04-06T07:05:28;18.02;;;13.88;;
33268;SDS011;19640;50.944;5.260;2023-04-06T07:07:54;22.10;;;12.98;;
33268;SDS011;19640;50.944;5.260;2023-04-06T07:10:21;15.57;;;12.73;;
33268;SDS011;19640;50.944;5.260;2023-04-06T07:12:47;23.00;;;13.10;;
33268;SDS011;19640;50.944;5.260;2023-04-06T07:15:13;16.75;;;11.85;;
33268;SDS011;19640;50.944;5.260;2023-04-06T07:17:38;15.27;;;12.57;;
33268;SDS011;19640;50.944;5.260;2023-04-06T07:20:06;17.83;;;11.93;;
33268;SDS011;19640;50.944;5.260;2023-04-06T07:22:32;16.38;;;11.85;;
33268;SDS011;19640;50.944;5.260;2023-04-06T07:24:58;20.98;;;12.88;;
33268;SDS011;19640;50.944;5.260;2023-04-06T07:27:24;18.88;;;12.63;;
33268;SDS011;19640;50.944;5.260;2023-04-06T07:29:50;17.20;;;11.52;;
33268;SDS011;19640;50.944;5.260;2023-04-06T07:32:15;15.63;;;12.07;;
33268;SDS011;19640;50.944;5.260;2023-04-06T07:34:41;14.50;;;12.18;;
33268;SDS011;19640;50.944;5.260;2023-04-06T07:37:07;14.45;;;11.52;;
33268;SDS011;19640;50.944;5.260;2023-04-06T07:39:33;14.30;;;11.20;;
33268;SDS011;19640;50.944;5.260;2023-04-06T07:41:59;16.58;;;12.85;;
33268;SDS011;19640;50.944;5.260;2023-04-06T07:44:25;16.50;;;11.15;;
33268;SDS011;19640;50.944;5.260;2023-04-06T07:46:51;18.35;;;12.32;;
33268;SDS011;19640;50.944;5.260;2023-04-06T07:49:17;20.60;;;12.15;;
33268;SDS011;19640;50.944;5.260;2023-04-06T07:51:42;15.35;;;11.52;;
33268;SDS011;19640;50.944;5.260;2023-04-06T07:54:08;18.65;;;11.43;;
33268;SDS011;19640;50.944;5.260;2023-04-06T07:56:34;17.00;;;11.40;;
33268;SDS011;19640;50.944;5.260;2023-04-06T07:59:01;16.85;;;11.40;;
33268;SDS011;19640;50.944;5.260;2023-04-06T08:01:28;17.40;;;10.73;;
33268;SDS011;19640;50.944;5.260;2023-04-06T08:03:55;14.18;;;11.10;;
33268;SDS011;19640;50.944;5.260;2023-04-06T08:06:21;16.65;;;11.02;;
33268;SDS011;19640;50.944;5.260;2023-04-06T08:08:47;13.73;;;10.40;;
33268;SDS011;19640;50.944;5.260;2023-04-06T08:11:12;13.80;;;10.45;;
33268;SDS011;19640;50.944;5.260;2023-04-06T08:13:38;15.07;;;11.32;;
33268;SDS011;19640;50.944;5.260;2023-04-06T08:16:04;14.40;;;10.60;;
33268;SDS011;19640;50.944;5.260;2023-04-06T08:18:30;14.35;;;10.48;;
33268;SDS011;19640;50.944;5.260;2023-04-06T08:20:55;12.38;;;9.75;;
33268;SDS011;19640;50.944;5.260;2023-04-06T08:23:22;17.17;;;9.95;;
33268;SDS011;19640;50.944;5.260;2023-04-06T08:25:47;17.60;;;10.25;;
33268;SDS011;19640;50.944;5.260;2023-04-06T08:28:13;13.85;;;9.73;;
33268;SDS011;19640;50.944;5.260;2023-04-06T08:30:39;18.00;;;10.68;;
33268;SDS011;19640;50.944;5.260;2023-04-06T08:33:05;15.50;;;9.57;;
33268;SDS011;19640;50.944;5.260;2023-04-06T08:35:31;13.02;;;10.30;;
33268;SDS011;19640;50.944;5.260;2023-04-06T08:37:57;13.98;;;10.95;;
33268;SDS011;19640;50.944;5.260;2023-04-06T08:40:23;13.82;;;9.65;;
33268;SDS011;19640;50.944;5.260;2023-04-06T08:42:57;13.98;;;9.45;;
33268;SDS011;19640;50.944;5.260;2023-04-06T08:45:29;13.63;;;9.82;;
33268;SDS011;19640;50.944;5.260;2023-04-06T08:47:55;12.70;;;9.60;;
33268;SDS011;19640;50.944;5.260;2023-04-06T08:50:26;17.33;;;9.63;;
33268;SDS011;19640;50.944;5.260;2023-04-06T08:52:54;12.65;;;8.77;;
33268;SDS011;19640;50.944;5.260;2023-04-06T08:55:21;12.10;;;8.13;;
33268;SDS011;19640;50.944;5.260;2023-04-06T08:57:47;10.90;;;9.00;;
33268;SDS011;19640;50.944;5.260;2023-04-06T09:00:14;13.07;;;9.23;;
33268;SDS011;19640;50.944;5.260;2023-04-06T09:02:42;12.82;;;9.25;;
33268;SDS011;19640;50.944;5.260;2023-04-06T09:05:10;13.68;;;8.52;;
33268;SDS011;19640;50.944;5.260;2023-04-06T09:07:36;18.35;;;9.10;;
33268;SDS011;19640;50.944;5.260;2023-04-06T09:10:04;17.70;;;9.13;;
33268;SDS011;19640;50.944;5.260;2023-04-06T09:12:31;11.70;;;7.88;;
33268;SDS011;19640;50.944;5.260;2023-04-06T09:14:58;11.82;;;8.50;;
33268;SDS011;19640;50.944;5.260;2023-04-06T09:17:26;10.52;;;8.73;;
33268;SDS011;19640;50.944;5.260;2023-04-06T09:19:58;11.68;;;8.55;;
33268;SDS011;19640;50.944;5.260;2023-04-06T09:22:40;10.00;;;7.28;;
33268;SDS011;19640;50.944;5.260;2023-04-06T09:25:08;10.57;;;8.32;;
33268;SDS011;19640;50.944;5.260;2023-04-06T09:27:35;16.50;;;7.78;;
33268;SDS011;19640;50.944;5.260;2023-04-06T09:30:09;9.35;;;7.70;;
33268;SDS011;19640;50.944;5.260;2023-04-06T09:32:51;9.60;;;7.05;;
33268;SDS011;19640;50.944;5.260;2023-04-06T09:35:18;9.60;;;6.95;;
33268;SDS011;19640;50.944;5.260;2023-04-06T09:37:45;10.35;;;6.75;;
33268;SDS011;19640;50.944;5.260;2023-04-06T09:40:16;10.40;;;7.50;;
33268;SDS011;19640;50.944;5.260;2023-04-06T09:42:47;8.20;;;6.63;;
33268;SDS011;19640;50.944;5.260;2023-04-06T09:45:16;8.38;;;6.28;;
33268;SDS011;19640;50.944;5.260;2023-04-06T09:47:43;10.27;;;6.38;;
33268;SDS011;19640;50.944;5.260;2023-04-06T09:50:11;9.98;;;7.53;;
33268;SDS011;19640;50.944;5.260;2023-04-06T09:55:36;9.10;;;6.78;;
33268;SDS011;19640;50.944;5.260;2023-04-06T09:58:07;8.43;;;6.93;;
33268;SDS011;19640;50.944;5.260;2023-04-06T10:00:53;9.15;;;7.20;;
33268;SDS011;19640;50.944;5.260;2023-04-06T10:06:03;10.07;;;7.22;;
33268;SDS011;19640;50.944;5.260;2023-04-06T10:08:31;9.98;;;7.15;;
33268;SDS011;19640;50.944;5.260;2023-04-06T10:11:00;9.85;;;6.68;;
33268;SDS011;19640;50.944;5.260;2023-04-06T10:13:27;10.48;;;7.50;;
33268;SDS011;19640;50.944;5.260;2023-04-06T10:15:54;9.55;;;6.95;;
33268;SDS011;19640;50.944;5.260;2023-04-06T10:18:20;11.02;;;7.35;;
33268;SDS011;19640;50.944;5.260;2023-04-06T10:20:51;14.80;;;8.60;;
33268;SDS011;19640;50.944;5.260;2023-04-06T10:23:43;9.75;;;7.97;;
33268;SDS011;19640;50.944;5.260;2023-04-06T10:26:14;9.70;;;7.65;;
33268;SDS011;19640;50.944;5.260;2023-04-06T10:28:42;10.50;;;7.70;;
33268;SDS011;19640;50.944;5.260;2023-04-06T10:31:08;10.90;;;7.97;;
33268;SDS011;19640;50.944;5.260;2023-04-06T10:33:34;9.02;;;7.50;;
33268;SDS011;19640;50.944;5.260;2023-04-06T10:36:13;11.82;;;8.18;;
33268;SDS011;19640;50.944;5.260;2023-04-06T10:38:40;11.63;;;7.95;;
33268;SDS011;19640;50.944;5.260;2023-04-06T10:41:08;11.65;;;8.35;;
33268;SDS011;19640;50.944;5.260;2023-04-06T10:43:41;9.30;;;7.53;;
33268;SDS011;19640;50.944;5.260;2023-04-06T10:48:37;10.02;;;7.88;;
33268;SDS011;19640;50.944;5.260;2023-04-06T10:51:11;9.23;;;7.63;;
33268;SDS011;19640;50.944;5.260;2023-04-06T10:53:40;11.23;;;8.02;;
33268;SDS011;19640;50.944;5.260;2023-04-06T10:56:11;10.35;;;7.72;;
33268;SDS011;19640;50.944;5.260;2023-04-06T10:58:43;8.60;;;7.40;;
33268;SDS011;19640;50.944;5.260;2023-04-06T11:01:11;11.13;;;7.28;;
33268;SDS011;19640;50.944;5.260;2023-04-06T11:03:47;8.40;;;7.10;;
33268;SDS011;19640;50.944;5.260;2023-04-06T11:06:18;8.45;;;6.68;;
33268;SDS011;19640;50.944;5.260;2023-04-06T11:08:48;9.68;;;7.28;;
33268;SDS011;19640;50.944;5.260;2023-04-06T11:11:15;10.32;;;7.20;;
33268;SDS011;19640;50.944;5.260;2023-04-06T11:16:25;8.55;;;7.28;;
33268;SDS011;19640;50.944;5.260;2023-04-06T11:24:08;7.95;;;6.10;;
33268;SDS011;19640;50.944;5.260;2023-04-06T11:26:43;8.15;;;6.15;;
33268;SDS011;19640;50.944;5.260;2023-04-06T11:29:10;7.60;;;6.28;;
33268;SDS011;19640;50.944;5.260;2023-04-06T11:31:38;8.43;;;6.63;;
33268;SDS011;19640;50.944;5.260;2023-04-06T11:34:08;8.40;;;6.20;;
33268;SDS011;19640;50.944;5.260;2023-04-06T11:36:35;8.73;;;6.53;;
33268;SDS011;19640;50.944;5.260;2023-04-06T11:39:02;7.40;;;6.13;;
33268;SDS011;19640;50.944;5.260;2023-04-06T11:41:28;7.53;;;6.35;;
33268;SDS011;19640;50.944;5.260;2023-04-06T11:43:55;9.68;;;6.18;;
33268;SDS011;19640;50.944;5.260;2023-04-06T11:46:21;8.75;;;6.05;;
33268;SDS011;19640;50.944;5.260;2023-04-06T11:48:47;7.53;;;6.40;;
33268;SDS011;19640;50.944;5.260;2023-04-06T11:51:12;7.75;;;6.47;;
33268;SDS011;19640;50.944;5.260;2023-04-06T11:53:48;7.57;;;6.68;;
33268;SDS011;19640;50.944;5.260;2023-04-06T11:56:23;7.55;;;6.75;;
33268;SDS011;19640;50.944;5.260;2023-04-06T11:58:57;9.45;;;6.60;;
33268;SDS011;19640;50.944;5.260;2023-04-06T12:03:51;10.40;;;6.95;;
33268;SDS011;19640;50.944;5.260;2023-04-06T12:06:17;7.07;;;6.07;;
33268;SDS011;19640;50.944;5.260;2023-04-06T12:08:43;8.27;;;6.45;;
33268;SDS011;19640;50.944;5.260;2023-04-06T12:11:10;8.18;;;6.72;;
33268;SDS011;19640;50.944;5.260;2023-04-06T12:13:36;8.18;;;6.65;;
33268;SDS011;19640;50.944;5.260;2023-04-06T12:16:01;8.15;;;6.03;;
33268;SDS011;19640;50.944;5.260;2023-04-06T12:18:27;8.50;;;6.88;;
33268;SDS011;19640;50.944;5.260;2023-04-06T12:20:53;7.00;;;6.30;;
33268;SDS011;19640;50.944;5.260;2023-04-06T12:23:19;8.98;;;6.65;;
33268;SDS011;19640;50.944;5.260;2023-04-06T12:25:45;8.55;;;6.38;;
33268;SDS011;19640;50.944;5.260;2023-04-06T12:28:11;8.77;;;7.15;;
33268;SDS011;19640;50.944;5.260;2023-04-06T12:30:37;7.70;;;6.90;;
33268;SDS011;19640;50.944;5.260;2023-04-06T12:33:02;7.50;;;6.70;;
33268;SDS011;19640;50.944;5.260;2023-04-06T12:35:28;7.90;;;7.10;;
33268;SDS011;19640;50.944;5.260;2023-04-06T12:37:58;7.07;;;5.80;;
33268;SDS011;19640;50.944;5.260;2023-04-06T12:40:23;9.73;;;7.32;;
33268;SDS011;19640;50.944;5.260;2023-04-06T12:42:49;7.20;;;6.00;;
33268;SDS011;19640;50.944;5.260;2023-04-06T12:45:15;8.82;;;7.63;;
33268;SDS011;19640;50.944;5.260;2023-04-06T12:47:40;9.32;;;6.50;;
33268;SDS011;19640;50.944;5.260;2023-04-06T12:50:06;9.10;;;7.55;;
33268;SDS011;19640;50.944;5.260;2023-04-06T12:52:32;10.32;;;7.88;;
33268;SDS011;19640;50.944;5.260;2023-04-06T12:55:00;8.30;;;7.45;;
33268;SDS011;19640;50.944;5.260;2023-04-06T12:57:27;10.00;;;8.02;;
33268;SDS011;19640;50.944;5.260;2023-04-06T12:59:52;9.77;;;8.07;;
33268;SDS011;19640;50.944;5.260;2023-04-06T13:02:18;8.23;;;7.13;;
33268;SDS011;19640;50.944;5.260;2023-04-06T13:04:45;11.25;;;7.88;;
33268;SDS011;19640;50.944;5.260;2023-04-06T13:07:12;10.95;;;8.38;;
33268;SDS011;19640;50.944;5.260;2023-04-06T13:09:37;8.73;;;7.82;;
33268;SDS011;19640;50.944;5.260;2023-04-06T13:12:03;12.20;;;8.15;;
33268;SDS011;19640;50.944;5.260;2023-04-06T13:14:29;12.50;;;8.63;;
33268;SDS011;19640;50.944;5.260;2023-04-06T13:16:56;11.02;;;8.18;;
33268;SDS011;19640;50.944;5.260;2023-04-06T13:19:22;9.48;;;8.40;;
33268;SDS011;19640;50.944;5.260;2023-04-06T13:21:48;11.05;;;9.15;;
33268;SDS011;19640;50.944;5.260;2023-04-06T13:24:14;9.15;;;8.25;;
33268;SDS011;19640;50.944;5.260;2023-04-06T13:26:40;8.10;;;7.28;;
33268;SDS011;19640;50.944;5.260;2023-04-06T13:29:05;9.20;;;8.20;;
33268;SDS011;19640;50.944;5.260;2023-04-06T13:31:31;9.13;;;7.97;;
33268;SDS011;19640;50.944;5.260;2023-04-06T13:33:57;9.80;;;8.07;;
33268;SDS011;19640;50.944;5.260;2023-04-06T13:36:23;8.00;;;5.93;;
33268;SDS011;19640;50.944;5.260;2023-04-06T13:38:49;10.60;;;7.57;;
33268;SDS011;19640;50.944;5.260;2023-04-06T13:41:22;9.27;;;8.05;;
33268;SDS011;19640;50.944;5.260;2023-04-06T13:43:49;9.50;;;7.82;;
33268;SDS011;19640;50.944;5.260;2023-04-06T13:46:15;10.13;;;8.20;;
33268;SDS011;19640;50.944;5.260;2023-04-06T13:48:41;10.80;;;7.82;;
33268;SDS011;19640;50.944;5.260;2023-04-06T13:51:11;8.77;;;7.95;;
33268;SDS011;19640;50.944;5.260;2023-04-06T13:53:38;10.00;;;7.63;;
33268;SDS011;19640;50.944;5.260;2023-04-06T13:56:04;9.63;;;7.97;;
33268;SDS011;19640;50.944;5.260;2023-04-06T13:58:31;9.93;;;8.05;;
33268;SDS011;19640;50.944;5.260;2023-04-06T14:01:03;9.45;;;7.55;;
33268;SDS011;19640;50.944;5.260;2023-04-06T14:03:31;9.48;;;7.78;;
33268;SDS011;19640;50.944;5.260;2023-04-06T14:05:57;10.30;;;7.82;;
33268;SDS011;19640;50.944;5.260;2023-04-06T14:08:24;10.75;;;8.80;;
33268;SDS011;19640;50.944;5.260;2023-04-06T14:10:50;9.63;;;8.23;;
33268;SDS011;19640;50.944;5.260;2023-04-06T14:13:16;8.57;;;7.78;;
33268;SDS011;19640;50.944;5.260;2023-04-06T14:15:42;9.85;;;7.35;;
33268;SDS011;19640;50.944;5.260;2023-04-06T14:18:08;8.18;;;7.38;;
33268;SDS011;19640;50.944;5.260;2023-04-06T14:20:34;8.60;;;6.43;;
33268;SDS011;19640;50.944;5.260;2023-04-06T14:23:00;9.30;;;7.80;;
33268;SDS011;19640;50.944;5.260;2023-04-06T14:25:26;8.00;;;7.15;;
33268;SDS011;19640;50.944;5.260;2023-04-06T14:27:52;10.57;;;8.75;;
33268;SDS011;19640;50.944;5.260;2023-04-06T14:30:18;9.90;;;8.27;;
33268;SDS011;19640;50.944;5.260;2023-04-06T14:32:43;9.65;;;8.55;;
33268;SDS011;19640;50.944;5.260;2023-04-06T14:35:09;9.88;;;8.55;;
33268;SDS011;19640;50.944;5.260;2023-04-06T14:37:35;11.18;;;9.38;;
33268;SDS011;19640;50.944;5.260;2023-04-06T14:40:01;9.95;;;8.75;;
33268;SDS011;19640;50.944;5.260;2023-04-06T14:42:30;10.98;;;9.88;;
33268;SDS011;19640;50.944;5.260;2023-04-06T14:44:56;9.63;;;8.40;;
33268;SDS011;19640;50.944;5.260;2023-04-06T14:47:22;10.82;;;9.25;;